Aviation Digital Data Service (ADDS)

Output produced by METARs form (1555 UTC 23 April 2017)
found at http://www.aviationweather.gov/adds/metars/
 
ENAT 231450Z 10004KT 040V150 CAVOK 00/M08 Q1006 RMK WIND 700FT 05008KT
TAF ENAT 231400Z 2315/2323 VRB05KT 9999 FEW040 SCT060
       
ENAN 231520Z 10009KT CAVOK 04/M06 Q1003
TAF ENAN 2312/2412 07015KT 9999 SCT045
       
ENML 231520Z 32007KT 280V340 9999 4000E -SHSN FEW013CB BKN023 02/M01 Q1011
TAF ENML 231400Z 2315/2322 27008KT 9999 -SHRASN FEW012CB BKN040 
     TEMPO 2315/2322 25015G25KT 1200 SHSN VV006
       
ENNA 231520Z 34003KT 9999 FEW040 00/M07 Q1006 RMK WIND 1800FT 08005KT
TAF ENNA 2312/2412 VRB05KT 9999 FEW025 SCT040 
     TEMPO 2318/2412 18010KT
       
ENDU 231520Z 09012KT 9999 FEW050 02/M07 Q1003 RMK WIND 1100FT 11008KT WIND 2200FT 09013KT
TAF ENDU 2312/2412 10008KT 9999 SCT045
       
ENBS 231450Z 21008KT CAVOK M03/M07 Q1005
ENBR 231520Z 18011KT 9999 -SHRA FEW004 SCT007 BKN010 02/02 Q1013 TEMPO 3000 SHSNRA BKN008 RMK WIND 1200FT 19014KT
TAF AMD ENBR 2314/2412 16008KT 9999 FEW015 SCT040 
     TEMPO 2314/2318 3000 SHRASNGS BKN012CB 
     PROB40 2314/2318 1200 SN VV004 
     BECMG 2319/2323 2000 -SN VV012 
     TEMPO 2323/2404 1200 SN VV006 
     BECMG 2400/2404 34015KT 9999 SCT007 BKN015 
     BECMG 2406/2409 35025KT
       
ENBO 231520Z 07002KT 5000 -SHSNRA SCT006 BKN012 01/01 Q1001 TEMPO 4000 SHSNRA VV008
TAF AMD ENBO 2314/2412 10008KT 9999 FEW012 SCT025 
     TEMPO 2315/2318 23010KT 2000 SHRASN VV012 
     TEMPO 2315/2318 FEW012CB 
     TEMPO 2400/2412 10018KT
       
ENBL 231520Z 26003KT 2000 SHSN VV012 00/M01 Q1010
ENBN 231520Z 28011KT 9999 VCSH FEW015CB SCT020 04/M00 Q1003
TAF ENBN 231400Z 2315/2319 27008KT 9999 SCT012TCU BKN030 
     TEMPO 2315/2319 4000 -SHRASN BKN012CB
       
ENEV 231450Z 13011KT CAVOK 03/M06 Q1001 RMK WIND 1400FT 10013KT
TAF ENEV 231400Z 2315/2321 10012KT 9999 FEW025 SCT045
       
ENFL 231520Z 05005KT 2000 -SN VV007 01/M01 Q1012
TAF AMD ENFL 231527Z 2315/2320 VRB05KT 9999 -SHRA FEW008 BKN020 
     TEMPO 2315/2318 3000 SHSNRA BKN008 SCT015CB 
     PROB40 2315/2318 1200 SN VV004
       
ENHK 231420Z 12015KT CAVOK 02/M05 Q1006
ENHD 231520Z 21015KT 9999 6000S -RA BKN011 04/02 Q1014
TAF ENHD 231400Z 2315/2322 24008KT 9999 -RADZ FEW008 BKN020 
     PROB40 
     TEMPO 2315/2322 3000 RADZ BR BKN012 SCT015CB 
     PROB30 2315/2322 1200 SNRA VV006 
     BECMG 2316/2318 18010KT
       
ENKR 231520Z 07008KT 9999 SCT032 M02/M07 Q1006 RMK WIND 731FT 06011KT
TAF ENKR 231400Z 2315/2324 VRB05KT 9999 FEW015 SCT050
       
ENMS 231520Z VRB03KT 9999 VCSH FEW018 SCT028 SCT040 04/00 Q1001 RMK WIND 412FT VRB03KT
ENCN 231520Z 31010KT 270V350 CAVOK 09/M07 Q1014
TAF ENCN 231400Z 2315/2322 30012KT 9999 FEW040 
     BECMG 2319/2321 VRB05KT
       
ENKB 231520Z 27011KT 250V310 9999 FEW022 SCT066 04/M04 Q1010 RMK WIND 745FT 30015KT
TAF ENKB 231400Z 2315/2321 27008KT 9999 -SHRASN FEW012TCU SCT040 
     TEMPO 2315/2317 30018G28KT 2000 SHRASNGS BKN012CB 
     TEMPO 2317/2321 1000 SHSN VV006
       
ENNO 231350Z 28017KT 240V310 CAVOK 10/M10 Q1011 RERA
TAF ENNO 231100Z 2313/2317 32010KT CAVOK
       
ENOL 231520Z 25014KT 9999 VCSH FEW012CB FEW018TCU SCT060 02/M01 Q1009 TEMPO 30025G35KT 1200 SHSNRAGS VV007
TAF ENOL 2312/2412 30012KT 9999 FEW012CB SCT030 
     TEMPO 2312/2318 30025G35KT 
     TEMPO 2312/2409 1200 SHSNRAGS VV007 
     BECMG 2322/2401 24012KT 
     BECMG 2408/2411 VRB05KT
       
ENGM 231520Z 34008KT 280V030 9999 VCSH NSC 08/M14 Q1008 NOSIG
TAF AMD ENGM 2312/2412 33008KT 9999 FEW040 
     TEMPO 2312/2318 4000 SHRASN FEW050CB SCT060 
     BECMG 2403/2406 04010KT BKN014 
     PROB40 2406/2412 4000 -SN BKN003
       
ENRO 231520Z 27016KT 9999 VCSH SCT045 M01/M07 Q1006
TAF COR ENRO 231100Z 2313/2318 30015KT 9999 FEW010 SCT030 
     TEMPO 2313/2318 4000 -SHSN VV008
       
ENRY 231520Z AUTO 25006KT 160V310 9999NDV SCT076/// 08/M07 Q1010
TAF ENRY 2312/2412 32008KT 9999 FEW040 
     BECMG 2403/2406 17010KT BKN012 
     PROB40 2404/2412 4000 SNRA BKN003
       
ENSO 231450Z 20004KT 8000 1500E SNRA FEW005 SCT008 BKN013 02/01 Q1014
TAF ENSO 231400Z 2315/2318 19008KT 9999 SCT008 BKN015 
     TEMPO 2315/2318 4000 SHRASN BKN012CB 
     PROB40 2315/2318 1200 SNRA VV006
       
ENSG 231450Z 23005KT 9999 -SHSN FEW010 SCT027 BKN035 01/M04 Q1010 RMK WIND 3806FT VRB02KT
ENSR 231520Z 16006KT CAVOK 01/M10 Q1006 WIND 1119FT 12011KT
ENZV 231520Z 23009KT 9999 -DZRA FEW009 BKN020 03/01 Q1016 TEMPO 3000 SHRASN BKN010
TAF COR ENZV 2312/2412 33008KT 9999 FEW015TCU SCT030 
     BECMG 2312/2314 26012KT 
     TEMPO 2312/2316 2000 SHSNRAGS BKN012CB 
     PROB30 2312/2317 1200 SN VV010 
     BECMG 2315/2318 18008KT 
     BECMG 2318/2321 2000 -SN VV012 
     BECMG 2321/2323 9999 SCT007 BKN015 
     TEMPO 2323/2403 3000 RADZ BR BKN008 
     BECMG 2400/2403 24012KT 
     BECMG 2403/2406 35018KT 
     BECMG 2406/2409 35028KT
       
ENST 231520Z 27008KT 210V330 9999 -SHRAGS FEW012CB BKN025 04/00 Q1002 RMK WIND 300FT 29012KT
ENSS 231350Z 23007KT 9999 FEW045 SCT068 M03/M07 Q1006 RMK WIND 500FT 23008KT
ENTO 231520Z 19004KT 140V270 CAVOK 09/M07 Q1010
TAF ENTO 2312/2412 33008KT 9999 FEW040 
     BECMG 2402/2404 17010KT BKN012 
     PROB40 2404/2409 4000 RASN BKN003
       
ENTC 231520Z 05007KT 010V110 CAVOK 02/M10 Q1004 NOSIG RMK WIND 2600FT 10015KT
TAF ENTC 2312/2412 05005KT 9999 FEW040
       
ENVA 231520Z 27026KT 9999 FEW018 SCT027TCU 04/M01 Q1008 RMK WIND 670FT 28021G33KT
TAF ENVA 2312/2412 30018KT 9999 -SHRASN FEW015TCU BKN025 
     TEMPO 2312/2318 27027G37KT 1500 SHRASNGS BKN012CB 
     BECMG 2318/2321 23010KT 
     BECMG 2320/2323 VRB05KT
       
ENAL 231520Z 31007KT 260V330 9999 FEW020TCU BKN053 04/00 Q1011
TAF ENAL 231400Z 2315/2322 27008KT 9999 FEW015CB SCT030 
     TEMPO 2315/2322 1200 SHSN VV006